Time;durP1;ratioP1;P1;durP2;ratioP2;P2;SDS_P1;SDS_P2;PMS_P1;PMS_P2;Temp;Humidity;BMP_temperature;BMP_pressure;BME280_temperature;BME280_humidity;BME280_pressure;Samples;Min_cycle;Max_cycle;Signal;HPM_P1;HPM_P2
2024/03/10 00:01:24;;;;;;;10.70;9.60;;;10.40;80.50;;;;;;5008018;28;113193;-44
2024/03/10 00:03:50;;;;;;;10.95;9.52;;;10.40;80.50;;;;;;5008381;28;112582;-44
2024/03/10 00:06:16;;;;;;;12.02;9.70;;;10.30;80.50;;;;;;5008857;28;112526;-44
2024/03/10 00:08:43;;;;;;;12.88;9.57;;;10.40;80.50;;;;;;5009446;28;112663;-43
2024/03/10 00:11:12;;;;;;;9.70;8.80;;;10.30;80.50;;;;;;5009648;28;114361;-45
2024/03/10 00:13:38;;;;;;;10.20;8.60;;;10.20;80.70;;;;;;5007652;28;112646;-46
2024/03/10 00:16:04;;;;;;;10.32;8.75;;;10.20;80.60;;;;;;5008105;28;112785;-42
2024/03/10 00:18:30;;;;;;;11.25;8.85;;;10.20;80.80;;;;;;5004848;28;113196;-42
2024/03/10 00:20:56;;;;;;;9.20;8.30;;;10.30;80.70;;;;;;5001369;28;114446;-45
2024/03/10 00:23:23;;;;;;;10.18;8.77;;;10.20;80.60;;;;;;4998560;28;113764;-45
2024/03/10 00:25:49;;;;;;;8.48;7.53;;;10.20;80.90;;;;;;4991417;28;112893;-45
2024/03/10 00:28:15;;;;;;;11.45;7.82;;;10.20;80.60;;;;;;4990685;28;112622;-46
2024/03/10 00:30:41;;;;;;;12.02;7.35;;;10.30;80.40;;;;;;4993504;28;113976;-49
2024/03/10 00:33:07;;;;;;;9.00;7.47;;;10.30;80.30;;;;;;4991484;28;113858;-45
2024/03/10 00:35:35;;;;;;;8.55;7.25;;;10.30;80.10;;;;;;4999482;28;112712;-45
2024/03/10 00:38:02;;;;;;;10.32;7.43;;;10.30;80.30;;;;;;4988729;28;112789;-46
2024/03/10 00:40:28;;;;;;;8.13;7.00;;;10.20;80.30;;;;;;4990311;28;113332;-43
2024/03/10 00:42:54;;;;;;;10.02;7.50;;;10.30;80.30;;;;;;4991562;28;114128;-47
2024/03/10 00:45:21;;;;;;;8.18;6.93;;;10.30;79.70;;;;;;4994146;28;112682;-46
2024/03/10 00:47:48;;;;;;;7.35;6.50;;;10.30;79.70;;;;;;4997429;28;112733;-42
2024/03/10 00:50:14;;;;;;;6.80;6.20;;;10.30;79.50;;;;;;4998546;28;113107;-44
2024/03/10 00:52:41;;;;;;;7.18;6.47;;;10.30;79.30;;;;;;5003177;28;112751;-43
2024/03/10 00:55:07;;;;;;;20.80;15.52;;;10.30;79.40;;;;;;5003454;28;112644;-42
2024/03/10 00:57:33;;;;;;;11.65;8.32;;;10.40;79.40;;;;;;5007131;28;112753;-43
2024/03/10 00:59:59;;;;;;;7.30;6.60;;;10.30;79.60;;;;;;5002222;28;113186;-42
2024/03/10 01:02:26;;;;;;;8.02;7.20;;;10.20;79.80;;;;;;5003270;28;113707;-42
2024/03/10 01:04:52;;;;;;;9.55;6.85;;;10.30;80.30;;;;;;4990386;28;112597;-51
2024/03/10 01:07:18;;;;;;;8.30;7.50;;;10.30;80.20;;;;;;4987840;28;112943;-43
2024/03/10 01:09:44;;;;;;;7.90;7.10;;;10.40;79.80;;;;;;4986878;28;114596;-44
2024/03/10 01:12:10;;;;;;;9.05;7.97;;;10.50;79.60;;;;;;4987075;28;112696;-50
2024/03/10 01:14:36;;;;;;;9.00;7.82;;;10.50;79.60;;;;;;4988176;28;112603;-42
2024/03/10 01:17:04;;;;;;;8.40;6.93;;;10.40;80.00;;;;;;4987785;28;112962;-46
2024/03/10 01:19:34;;;;;;;8.35;7.18;;;10.40;80.10;;;;;;4994870;28;113182;-44
2024/03/10 01:21:59;;;;;;;11.05;7.78;;;10.10;81.00;;;;;;5006932;28;113160;-50
2024/03/10 01:24:25;;;;;;;8.38;7.45;;;10.10;81.40;;;;;;5008081;28;112615;-52
2024/03/10 01:26:51;;;;;;;8.85;7.40;;;10.00;81.80;;;;;;5008249;28;112679;-49
2024/03/10 01:29:17;;;;;;;9.15;7.72;;;10.00;82.00;;;;;;5006327;28;114710;-46
2024/03/10 01:31:43;;;;;;;8.88;7.38;;;9.90;82.20;;;;;;5006306;28;113978;-46
2024/03/10 01:34:12;;;;;;;11.45;7.68;;;9.90;82.40;;;;;;5007290;28;112587;-46
2024/03/10 01:36:37;;;;;;;8.05;7.07;;;10.00;82.00;;;;;;5007825;28;112893;-44
2024/03/10 01:39:03;;;;;;;7.80;7.10;;;9.90;82.30;;;;;;5006617;28;113212;-46
2024/03/10 01:41:31;;;;;;;8.05;7.30;;;10.10;81.90;;;;;;5006989;28;113879;-49
2024/03/10 01:43:57;;;;;;;8.43;7.53;;;10.20;81.60;;;;;;5007441;28;112957;-44
2024/03/10 01:46:24;;;;;;;10.38;7.28;;;10.20;81.70;;;;;;5007740;28;113250;-43
2024/03/10 01:48:51;;;;;;;7.72;6.93;;;10.00;82.50;;;;;;5006522;28;114379;-52
2024/03/10 01:51:18;;;;;;;8.13;7.32;;;9.90;82.80;;;;;;5006418;28;113042;-44
2024/03/10 01:53:45;;;;;;;8.15;7.35;;;9.90;83.30;;;;;;5007512;28;112559;-46
2024/03/10 01:56:11;;;;;;;10.40;7.22;;;9.80;83.80;;;;;;5007185;28;113135;-49
2024/03/10 01:58:38;;;;;;;7.70;7.00;;;9.80;83.70;;;;;;5006511;28;113255;-51
2024/03/10 02:01:04;;;;;;;7.65;6.95;;;9.90;83.60;;;;;;5006061;28;112775;-42
2024/03/10 02:03:30;;;;;;;8.00;7.20;;;9.80;83.50;;;;;;5007106;28;112552;-43
2024/03/10 02:05:56;;;;;;;9.80;6.93;;;9.90;83.70;;;;;;5007653;28;112691;-46
2024/03/10 02:08:22;;;;;;;7.90;7.10;;;9.90;84.00;;;;;;5006333;28;113641;-47
2024/03/10 02:10:48;;;;;;;9.07;7.03;;;9.90;83.70;;;;;;5006474;28;113065;-46
2024/03/10 02:13:18;;;;;;;9.10;7.25;;;9.80;83.90;;;;;;5007254;28;112709;-43
2024/03/10 02:15:57;;;;;;;8.63;7.78;;;9.80;83.70;;;;;;5007051;28;115029;-45
2024/03/10 02:18:23;;;;;;;9.23;7.57;;;9.70;84.30;;;;;;4993496;28;113239;-44
2024/03/10 02:20:50;;;;;;;8.85;7.22;;;9.60;84.70;;;;;;5004544;28;113015;-52
2024/03/10 02:23:18;;;;;;;7.95;7.10;;;9.80;84.20;;;;;;5006990;28;112901;-44
2024/03/10 02:25:45;;;;;;;8.50;7.63;;;9.70;84.30;;;;;;5006790;28;113005;-43
2024/03/10 02:28:20;;;;;;;10.98;7.82;;;9.60;84.70;;;;;;5005988;28;113285;-45
2024/03/10 02:30:56;;;;;;;9.65;7.85;;;9.50;84.80;;;;;;5005847;28;114350;-44
2024/03/10 02:47:12;;;;;;;11.25;8.48;;;9.80;84.70;;;;;;5006974;28;112620;-54
2024/03/10 02:49:40;;;;;;;9.07;8.10;;;9.80;84.90;;;;;;5005511;28;114535;-47
2024/03/10 02:52:07;;;;;;;9.57;8.32;;;9.80;84.60;;;;;;5005572;28;113948;-47
2024/03/10 02:54:33;;;;;;;9.48;8.48;;;9.70;84.90;;;;;;5006325;28;112850;-53
2024/03/10 02:56:58;;;;;;;9.02;8.13;;;9.70;85.10;;;;;;5006917;28;112651;-42
2024/03/10 02:59:25;;;;;;;9.82;8.90;;;9.60;85.10;;;;;;5005234;28;113212;-50
2024/03/10 03:01:51;;;;;;;10.13;8.93;;;9.70;85.00;;;;;;5005708;28;112803;-47
2024/03/10 03:04:17;;;;;;;9.82;8.82;;;9.70;85.00;;;;;;5006735;28;113213;-42
2024/03/10 03:06:43;;;;;;;10.27;9.07;;;9.70;85.20;;;;;;5006372;28;112776;-45
2024/03/10 03:09:08;;;;;;;12.23;9.30;;;9.80;84.80;;;;;;5005352;28;114429;-48
2024/03/10 03:11:34;;;;;;;10.65;9.45;;;9.80;84.70;;;;;;5005059;28;112893;-45
2024/03/10 03:14:03;;;;;;;9.95;8.95;;;9.80;84.50;;;;;;5004891;28;112635;-42
2024/03/10 03:16:29;;;;;;;11.65;9.00;;;9.90;84.90;;;;;;5006127;28;112703;-44
2024/03/10 03:18:56;;;;;;;10.07;8.90;;;9.80;85.10;;;;;;4991321;28;113054;-43
2024/03/10 03:21:22;;;;;;;10.85;9.13;;;9.90;84.80;;;;;;5005326;28;112665;-46
2024/03/10 03:23:48;;;;;;;9.73;8.82;;;9.90;84.80;;;;;;5004527;28;113009;-43
2024/03/10 03:26:16;;;;;;;9.63;8.63;;;9.90;84.60;;;;;;5005075;28;112819;-44
2024/03/10 03:28:42;;;;;;;9.23;8.32;;;9.80;84.90;;;;;;5003733;28;114482;-49
2024/03/10 03:31:08;;;;;;;10.18;8.55;;;9.80;84.80;;;;;;4992485;28;112929;-43
2024/03/10 03:33:33;;;;;;;11.27;8.30;;;9.90;84.80;;;;;;4993225;28;112704;-42
2024/03/10 03:36:00;;;;;;;11.48;8.48;;;9.80;84.70;;;;;;5003826;28;113028;-42
2024/03/10 03:38:26;;;;;;;9.30;8.30;;;9.90;84.90;;;;;;5005082;28;113281;-42
2024/03/10 03:40:52;;;;;;;10.93;8.48;;;9.90;84.40;;;;;;5003054;28;112999;-45
2024/03/10 03:43:18;;;;;;;9.23;8.32;;;9.80;84.90;;;;;;4994178;28;112966;-45
2024/03/10 03:45:44;;;;;;;10.63;8.15;;;9.90;84.80;;;;;;5006141;28;112776;-49
2024/03/10 03:48:09;;;;;;;9.50;8.60;;;9.80;84.70;;;;;;5004748;28;113212;-42
2024/03/10 03:50:35;;;;;;;9.70;8.70;;;9.80;85.20;;;;;;5007054;28;114009;-46
2024/03/10 03:53:01;;;;;;;10.00;9.00;;;9.70;85.30;;;;;;5009131;28;113122;-45
2024/03/10 03:55:27;;;;;;;11.15;8.98;;;9.80;84.90;;;;;;5009471;28;113325;-44
2024/03/10 03:57:53;;;;;;;11.15;9.10;;;9.70;85.30;;;;;;5006962;28;113098;-48
2024/03/10 04:00:19;;;;;;;10.48;9.38;;;9.60;85.70;;;;;;4995328;28;112968;-47
2024/03/10 04:02:46;;;;;;;10.90;9.57;;;9.60;85.60;;;;;;5009155;28;112893;-45
2024/03/10 04:05:15;;;;;;;11.55;9.43;;;9.70;85.80;;;;;;5009095;28;112824;-44
2024/03/10 04:07:42;;;;;;;12.10;9.23;;;9.70;85.60;;;;;;5008037;28;114427;-48
2024/03/10 04:10:09;;;;;;;9.65;8.65;;;9.80;85.20;;;;;;5007842;28;112646;-45
2024/03/10 04:12:38;;;;;;;12.52;8.57;;;9.80;85.00;;;;;;5008799;28;112616;-47
2024/03/10 04:15:09;;;;;;;11.50;8.43;;;9.80;85.10;;;;;;5009065;28;112762;-46
2024/03/10 04:17:35;;;;;;;11.38;8.70;;;9.80;85.10;;;;;;5007979;28;114588;-43
2024/03/10 04:20:02;;;;;;;9.82;8.80;;;9.80;85.00;;;;;;5007797;28;114045;-51
2024/03/10 04:22:28;;;;;;;8.95;8.05;;;9.70;85.40;;;;;;5008666;28;114257;-44
2024/03/10 04:24:54;;;;;;;15.43;9.05;;;9.60;85.70;;;;;;5008471;28;112771;-43
2024/03/10 04:27:20;;;;;;;12.25;7.97;;;9.70;85.60;;;;;;5007818;28;113308;-47
2024/03/10 04:29:46;;;;;;;10.70;8.18;;;9.70;85.60;;;;;;5007546;28;113895;-42
2024/03/10 04:32:12;;;;;;;12.45;8.25;;;9.70;85.50;;;;;;5005828;28;113019;-50
2024/03/10 04:34:38;;;;;;;10.70;8.00;;;9.70;85.70;;;;;;4997644;28;112712;-43
2024/03/10 04:37:08;;;;;;;9.40;7.40;;;9.80;85.40;;;;;;5007365;28;114386;-47
2024/03/10 04:39:35;;;;;;;11.98;7.80;;;9.80;85.40;;;;;;5007525;28;113556;-44
2024/03/10 04:42:00;;;;;;;14.23;8.52;;;9.80;85.40;;;;;;5009068;28;112771;-45
2024/03/10 04:44:26;;;;;;;15.10;8.40;;;9.80;85.20;;;;;;5008634;28;112851;-47
2024/03/10 04:46:52;;;;;;;10.60;7.35;;;9.70;85.70;;;;;;5007722;28;113643;-48
2024/03/10 04:49:18;;;;;;;14.15;8.15;;;9.70;85.50;;;;;;5007255;28;113154;-54
2024/03/10 04:51:43;;;;;;;11.40;7.65;;;9.70;85.80;;;;;;5008183;28;112720;-46
2024/03/10 04:54:09;;;;;;;12.35;7.25;;;9.70;85.60;;;;;;5008203;28;112904;-45
2024/03/10 04:56:35;;;;;;;12.00;7.57;;;9.80;85.60;;;;;;5007546;28;113176;-42
2024/03/10 04:59:05;;;;;;;10.20;6.60;;;9.80;85.10;;;;;;5007532;28;112842;-45
2024/03/10 05:01:31;;;;;;;10.82;7.32;;;9.70;85.50;;;;;;5007730;28;112756;-46
2024/03/10 05:03:57;;;;;;;11.88;6.72;;;9.70;85.80;;;;;;5008819;28;113141;-46
2024/03/10 05:06:22;;;;;;;8.80;6.53;;;9.70;85.60;;;;;;5007168;28;113115;-47
2024/03/10 05:08:48;;;;;;;11.02;6.18;;;9.80;85.50;;;;;;5007267;28;112657;-53
2024/03/10 05:11:18;;;;;;;8.70;6.10;;;9.80;85.60;;;;;;5007648;28;112840;-42
2024/03/10 05:13:45;;;;;;;7.82;6.22;;;9.90;85.10;;;;;;5006551;28;113038;-53
2024/03/10 05:16:16;;;;;;;7.80;5.78;;;9.90;85.10;;;;;;5006919;28;114386;-42
2024/03/10 05:18:42;;;;;;;10.88;6.18;;;9.80;85.40;;;;;;5006788;28;113745;-50
2024/03/10 05:21:08;;;;;;;9.43;6.25;;;9.80;85.50;;;;;;5007971;28;113364;-45
2024/03/10 05:23:34;;;;;;;8.70;5.95;;;9.80;85.60;;;;;;5007680;28;112888;-45
2024/03/10 05:26:00;;;;;;;8.45;5.82;;;9.80;85.40;;;;;;5007019;28;113659;-42
2024/03/10 05:28:25;;;;;;;8.05;6.22;;;9.70;85.60;;;;;;5006347;28;112891;-42
2024/03/10 05:30:52;;;;;;;6.95;5.50;;;9.70;85.90;;;;;;5007877;28;114090;-44
2024/03/10 05:33:18;;;;;;;8.88;6.10;;;9.70;86.10;;;;;;4995734;28;114194;-42
2024/03/10 05:35:44;;;;;;;10.77;6.18;;;9.80;86.10;;;;;;5004845;28;113678;-42
2024/03/10 05:38:10;;;;;;;9.15;5.60;;;9.80;86.00;;;;;;5006655;28;112901;-42
2024/03/10 05:40:35;;;;;;;8.45;6.05;;;9.80;86.10;;;;;;5007363;28;112778;-43
2024/03/10 05:43:01;;;;;;;8.25;5.40;;;9.80;86.10;;;;;;5008534;28;112693;-45
2024/03/10 05:45:27;;;;;;;9.20;5.40;;;9.90;85.90;;;;;;5006675;28;113725;-50
2024/03/10 05:47:53;;;;;;;9.80;5.95;;;9.90;86.00;;;;;;5006135;28;113716;-43
2024/03/10 05:50:20;;;;;;;9.63;6.22;;;9.90;86.10;;;;;;5007335;28;112551;-44
2024/03/10 05:52:46;;;;;;;8.90;5.30;;;9.80;86.20;;;;;;5007581;28;112822;-47
2024/03/10 05:55:12;;;;;;;9.65;5.35;;;9.80;86.20;;;;;;5006722;28;113597;-47
2024/03/10 05:57:41;;;;;;;10.18;5.38;;;9.80;86.30;;;;;;5006303;28;114039;-46
2024/03/10 06:00:13;;;;;;;8.43;5.70;;;9.80;86.30;;;;;;5007157;28;112837;-49
2024/03/10 06:02:41;;;;;;;7.07;4.85;;;9.80;86.40;;;;;;5006644;28;112896;-43
2024/03/10 06:05:08;;;;;;;7.45;4.65;;;9.90;86.40;;;;;;5006247;28;115073;-46
2024/03/10 06:07:34;;;;;;;7.82;5.13;;;9.80;86.70;;;;;;5006298;28;112922;-48
2024/03/10 06:10:00;;;;;;;10.57;5.97;;;9.80;87.00;;;;;;5006865;28;112935;-43
2024/03/10 06:12:25;;;;;;;7.32;5.20;;;9.80;87.10;;;;;;5006603;28;112778;-48
2024/03/10 06:14:51;;;;;;;10.23;6.30;;;9.80;86.90;;;;;;5006130;28;114534;-46
2024/03/10 06:17:17;;;;;;;10.95;6.25;;;9.80;87.10;;;;;;5006045;28;113862;-44
2024/03/10 06:25:22;;;;;;;8.98;6.40;;;9.80;86.90;;;;;;5006181;28;112961;-50
2024/03/10 06:27:48;;;;;;;12.27;5.65;;;9.90;87.00;;;;;;5005882;28;112709;-47
2024/03/10 06:30:14;;;;;;;8.93;5.90;;;9.80;86.90;;;;;;5006007;28;113047;-50
2024/03/10 06:32:40;;;;;;;9.63;6.60;;;9.80;87.20;;;;;;4998903;28;112738;-46
2024/03/10 06:35:07;;;;;;;5.93;5.28;;;9.80;87.20;;;;;;4998700;28;113211;-50
2024/03/10 06:37:35;;;;;;;10.75;6.95;;;9.80;87.40;;;;;;5005700;28;113747;-43
2024/03/10 06:40:03;;;;;;;9.82;7.53;;;9.80;87.30;;;;;;5006924;28;112600;-49
2024/03/10 06:42:29;;;;;;;10.38;6.57;;;9.80;87.40;;;;;;5007253;28;112937;-46
2024/03/10 06:44:55;;;;;;;6.97;5.57;;;9.80;87.50;;;;;;5005646;28;114385;-44
2024/03/10 06:47:21;;;;;;;8.35;5.40;;;9.80;87.70;;;;;;5005699;28;113770;-46
2024/03/10 06:49:50;;;;;;;7.32;5.53;;;9.80;87.80;;;;;;5006776;28;112727;-43
2024/03/10 06:52:16;;;;;;;8.15;5.78;;;9.90;87.60;;;;;;5006593;28;112766;-45
2024/03/10 06:54:41;;;;;;;10.52;6.63;;;9.80;87.50;;;;;;5005389;28;113482;-46
2024/03/10 06:57:07;;;;;;;13.48;7.63;;;9.80;87.60;;;;;;5004218;28;115466;-44
2024/03/10 06:59:34;;;;;;;10.65;5.95;;;9.80;87.70;;;;;;5006458;28;112658;-45
2024/03/10 07:02:00;;;;;;;8.70;5.82;;;9.90;87.50;;;;;;5006511;28;113150;-42
2024/03/10 07:04:29;;;;;;;9.98;5.03;;;9.90;87.70;;;;;;5005212;28;114474;-49
2024/03/10 07:06:55;;;;;;;7.68;5.35;;;9.90;87.50;;;;;;5005515;28;113237;-45
2024/03/10 07:09:25;;;;;;;6.10;4.90;;;9.90;87.60;;;;;;5006358;28;113014;-54
2024/03/10 07:11:53;;;;;;;7.60;5.20;;;10.00;87.70;;;;;;5006580;28;112723;-42
2024/03/10 07:14:19;;;;;;;8.57;5.10;;;10.10;87.30;;;;;;5005087;28;114535;-52
2024/03/10 07:16:49;;;;;;;6.80;4.97;;;10.10;87.30;;;;;;5005056;28;112783;-45
2024/03/10 07:19:17;;;;;;;9.35;5.03;;;10.00;87.30;;;;;;5006061;28;112581;-45
2024/03/10 07:21:44;;;;;;;9.75;5.40;;;10.00;87.30;;;;;;5006006;28;112878;-43
2024/03/10 07:24:10;;;;;;;8.68;5.35;;;10.00;87.50;;;;;;5006570;28;113273;-43
2024/03/10 07:26:35;;;;;;;7.15;4.75;;;10.00;87.60;;;;;;5008751;28;112701;-44
2024/03/10 07:29:01;;;;;;;9.93;5.38;;;10.00;87.60;;;;;;5009640;28;112498;-47
2024/03/10 07:31:28;;;;;;;7.03;4.90;;;10.10;87.40;;;;;;5010116;28;113147;-49
2024/03/10 07:33:54;;;;;;;6.80;5.25;;;10.20;87.40;;;;;;4994538;28;115001;-45
2024/03/10 07:36:22;;;;;;;9.05;5.28;;;10.30;86.90;;;;;;5008712;28;113815;-47
2024/03/10 07:38:48;;;;;;;7.47;4.72;;;10.20;87.10;;;;;;5009202;28;112753;-42
2024/03/10 07:41:15;;;;;;;6.40;4.88;;;10.20;87.00;;;;;;5009297;28;112933;-42
2024/03/10 07:43:41;;;;;;;11.85;5.65;;;10.30;87.10;;;;;;5009166;28;113372;-48
2024/03/10 07:46:07;;;;;;;8.30;5.55;;;10.30;87.40;;;;;;5008394;28;113966;-54
2024/03/10 07:48:33;;;;;;;6.63;4.68;;;10.30;87.30;;;;;;5009244;28;112833;-42
2024/03/10 07:50:59;;;;;;;9.73;5.13;;;10.40;87.30;;;;;;5009248;28;112735;-49
2024/03/10 07:53:24;;;;;;;8.05;5.13;;;10.30;87.30;;;;;;5008388;28;113238;-46
2024/03/10 07:55:50;;;;;;;11.90;5.40;;;10.30;87.30;;;;;;5008233;28;112691;-46
2024/03/10 07:58:16;;;;;;;6.75;5.55;;;10.40;87.30;;;;;;5009517;28;112824;-44
2024/03/10 08:00:42;;;;;;;7.05;5.30;;;10.30;87.30;;;;;;5009249;28;112814;-43
2024/03/10 08:03:09;;;;;;;11.70;6.07;;;10.30;87.30;;;;;;5008073;28;113203;-53
2024/03/10 08:05:35;;;;;;;12.32;6.70;;;10.40;87.40;;;;;;5007529;28;112946;-46
2024/03/10 08:08:01;;;;;;;10.82;6.72;;;10.40;87.40;;;;;;5009018;28;112538;-46
2024/03/10 08:10:27;;;;;;;7.75;5.53;;;10.40;87.20;;;;;;5009356;28;112666;-52
2024/03/10 08:12:55;;;;;;;9.98;6.50;;;10.40;87.00;;;;;;5008002;28;113335;-49
2024/03/10 08:15:21;;;;;;;9.88;5.88;;;10.50;87.30;;;;;;5007884;28;113777;-45
2024/03/10 08:17:47;;;;;;;10.98;7.10;;;10.50;87.00;;;;;;5008924;28;112532;-42
2024/03/10 08:20:14;;;;;;;9.10;6.15;;;10.70;87.20;;;;;;5009130;28;113324;-52
2024/03/10 08:22:45;;;;;;;9.90;5.65;;;10.70;86.90;;;;;;5008080;28;113450;-45
2024/03/10 08:25:11;;;;;;;10.65;5.90;;;10.60;86.90;;;;;;5007395;28;113786;-42
2024/03/10 08:27:37;;;;;;;10.55;8.07;;;10.60;87.30;;;;;;5008698;28;112649;-47
2024/03/10 08:30:03;;;;;;;7.55;5.68;;;10.60;87.20;;;;;;5008334;28;112714;-43
2024/03/10 08:32:30;;;;;;;9.02;6.05;;;10.60;87.10;;;;;;5002091;28;115131;-46
2024/03/10 08:34:56;;;;;;;10.07;6.00;;;10.50;87.40;;;;;;4998495;28;113810;-48
2024/03/10 08:37:22;;;;;;;6.95;5.50;;;10.50;87.60;;;;;;5008390;28;112799;-46
2024/03/10 08:39:48;;;;;;;10.63;6.13;;;10.60;87.40;;;;;;5008825;28;113078;-42
2024/03/10 08:42:20;;;;;;;7.20;5.10;;;10.60;87.50;;;;;;5007812;28;114483;-50
2024/03/10 08:44:46;;;;;;;10.17;5.77;;;10.60;87.40;;;;;;5007535;28;113806;-43
2024/03/10 08:47:12;;;;;;;8.25;5.72;;;10.60;87.50;;;;;;5008733;28;113570;-53
2024/03/10 08:49:38;;;;;;;7.18;5.25;;;10.70;87.20;;;;;;5008767;28;112812;-45
2024/03/10 08:52:06;;;;;;;9.82;5.35;;;10.80;87.10;;;;;;5007472;28;113774;-46
2024/03/10 08:54:33;;;;;;;6.55;4.80;;;10.80;86.90;;;;;;5007019;28;113816;-42
2024/03/10 08:56:59;;;;;;;8.02;5.20;;;10.80;86.80;;;;;;5008201;28;112596;-52
2024/03/10 08:59:25;;;;;;;8.70;4.97;;;10.80;87.20;;;;;;5008331;28;112743;-43
2024/03/10 09:01:51;;;;;;;6.20;5.03;;;10.80;87.00;;;;;;5007369;28;113146;-51
2024/03/10 09:04:17;;;;;;;11.90;5.60;;;10.80;87.20;;;;;;5007287;28;112967;-46
2024/03/10 09:06:43;;;;;;;9.30;5.78;;;10.80;87.20;;;;;;5008214;28;112952;-46
2024/03/10 09:09:13;;;;;;;9.32;5.78;;;10.80;87.20;;;;;;5008368;28;112818;-44
2024/03/10 09:11:39;;;;;;;8.00;5.13;;;10.70;87.50;;;;;;5007009;28;114401;-43
2024/03/10 09:14:07;;;;;;;12.48;6.57;;;10.70;87.50;;;;;;5006841;28;113139;-42
2024/03/10 09:16:33;;;;;;;11.90;8.27;;;10.70;87.80;;;;;;4989281;28;114275;-47
2024/03/10 09:18:59;;;;;;;11.10;7.93;;;10.70;87.80;;;;;;4987775;28;112733;-46
2024/03/10 09:21:25;;;;;;;11.57;7.15;;;10.70;87.90;;;;;;4986853;28;113279;-48
2024/03/10 09:23:51;;;;;;;13.10;5.50;;;10.80;87.70;;;;;;4986853;28;113766;-47
2024/03/10 09:26:17;;;;;;;9.25;5.43;;;10.70;87.50;;;;;;4995787;28;112859;-50
2024/03/10 09:28:45;;;;;;;7.45;5.18;;;10.70;87.60;;;;;;4992922;28;113091;-53
2024/03/10 09:31:14;;;;;;;11.68;7.45;;;10.80;87.60;;;;;;4998270;28;113311;-58
2024/03/10 09:33:44;;;;;;;16.27;9.35;;;10.90;87.50;;;;;;4988275;28;114073;-44
2024/03/10 09:36:09;;;;;;;8.38;5.10;;;10.80;87.50;;;;;;4989292;28;112544;-43
2024/03/10 09:38:36;;;;;;;5.95;5.28;;;10.80;87.30;;;;;;4992476;28;112929;-44
2024/03/10 09:41:05;;;;;;;9.95;5.55;;;10.90;87.50;;;;;;4990995;28;114517;-44
2024/03/10 09:43:37;;;;;;;8.20;5.13;;;10.90;87.30;;;;;;4994405;28;112647;-49
2024/03/10 09:46:04;;;;;;;10.63;5.83;;;10.90;87.50;;;;;;4993473;28;112964;-47
2024/03/10 09:48:32;;;;;;;10.35;6.00;;;10.90;87.30;;;;;;4998564;28;112733;-51
2024/03/10 09:50:58;;;;;;;11.27;4.88;;;10.90;87.40;;;;;;4988526;28;114411;-49
2024/03/10 09:53:25;;;;;;;11.63;5.38;;;11.00;87.50;;;;;;4999873;28;113856;-47
2024/03/10 09:55:54;;;;;;;9.30;5.82;;;10.90;87.50;;;;;;4999069;28;113939;-55
2024/03/10 09:58:34;;;;;;;7.97;5.32;;;10.90;87.60;;;;;;4987111;28;112854;-52
2024/03/10 10:01:11;;;;;;;13.65;6.22;;;10.90;87.60;;;;;;4986230;28;115407;-45
2024/03/10 10:03:42;;;;;;;9.93;7.05;;;10.90;87.80;;;;;;4988012;28;114002;-47
2024/03/10 10:06:08;;;;;;;14.47;10.63;;;11.00;87.50;;;;;;4986790;28;114314;-52
2024/03/10 10:08:34;;;;;;;17.52;12.32;;;11.00;87.50;;;;;;4986033;28;112894;-45
2024/03/10 10:11:00;;;;;;;17.20;10.55;;;11.00;87.60;;;;;;4985372;28;113175;-45
2024/03/10 10:13:27;;;;;;;11.73;9.07;;;11.10;87.60;;;;;;4985426;28;113788;-42
2024/03/10 10:15:53;;;;;;;9.35;5.80;;;11.10;87.50;;;;;;4986768;28;114000;-49
2024/03/10 10:18:21;;;;;;;11.13;7.10;;;11.10;87.50;;;;;;4991331;28;112692;-43
2024/03/10 10:20:55;;;;;;;11.70;6.85;;;11.10;87.80;;;;;;4993335;28;114547;-44
2024/03/10 10:23:23;;;;;;;11.77;8.13;;;11.20;87.70;;;;;;4993187;28;113688;-47
2024/03/10 10:26:12;;;;;;;7.60;5.95;;;11.20;87.60;;;;;;4998729;28;113067;-47
2024/03/10 10:28:41;;;;;;;8.50;5.72;;;11.20;87.60;;;;;;4997487;28;112806;-44
2024/03/10 10:31:16;;;;;;;9.20;5.03;;;11.20;87.70;;;;;;5002131;28;114541;-42
2024/03/10 10:33:46;;;;;;;10.55;5.45;;;11.20;87.50;;;;;;4986798;28;113867;-42
2024/03/10 10:36:13;;;;;;;9.63;5.38;;;11.20;87.70;;;;;;4988035;28;112865;-47
2024/03/10 10:38:44;;;;;;;9.95;5.25;;;11.10;87.70;;;;;;4992532;28;114515;-43
2024/03/10 10:41:10;;;;;;;11.18;5.95;;;11.10;87.80;;;;;;4989896;28;113742;-43
2024/03/10 10:43:38;;;;;;;9.45;5.75;;;11.10;87.80;;;;;;4985883;28;112823;-44
2024/03/10 10:46:10;;;;;;;13.25;7.20;;;11.10;87.70;;;;;;4988389;28;113491;-45
2024/03/10 10:48:36;;;;;;;9.07;6.07;;;11.10;87.90;;;;;;4991086;28;113018;-42
2024/03/10 10:51:06;;;;;;;10.38;5.97;;;11.00;88.00;;;;;;4992569;28;113309;-46
2024/03/10 10:53:32;;;;;;;9.48;5.90;;;10.90;87.90;;;;;;4991257;28;113869;-49
2024/03/10 10:55:59;;;;;;;8.05;5.53;;;10.90;88.00;;;;;;4992470;28;112893;-44
2024/03/10 10:58:27;;;;;;;8.25;4.78;;;11.00;88.20;;;;;;4995072;28;113312;-48
2024/03/10 11:01:00;;;;;;;6.93;4.40;;;10.90;88.10;;;;;;4993855;28;114416;-49
2024/03/10 11:03:28;;;;;;;6.95;4.57;;;11.00;88.20;;;;;;4996649;28;113779;-42
2024/03/10 11:06:03;;;;;;;6.93;4.47;;;11.00;88.40;;;;;;5003770;28;112775;-42
2024/03/10 11:08:34;;;;;;;8.98;5.60;;;11.00;88.30;;;;;;5002330;28;112761;-46
2024/03/10 11:11:01;;;;;;;8.63;5.60;;;11.10;88.20;;;;;;5004816;28;114544;-44
2024/03/10 11:13:27;;;;;;;8.98;5.13;;;11.10;88.30;;;;;;5004617;28;113623;-43
2024/03/10 11:16:13;;;;;;;10.18;5.82;;;11.10;88.30;;;;;;5008812;28;112940;-43
2024/03/10 11:18:41;;;;;;;9.82;4.70;;;11.10;88.50;;;;;;4990702;28;112524;-51
2024/03/10 11:21:12;;;;;;;8.15;5.35;;;11.00;88.50;;;;;;4991720;28;113433;-46
2024/03/10 11:23:45;;;;;;;11.18;6.70;;;11.00;88.60;;;;;;4987185;28;113942;-50
2024/03/10 11:26:15;;;;;;;10.77;7.63;;;11.00;88.70;;;;;;4988025;28;114331;-42
2024/03/10 11:29:00;;;;;;;11.43;7.10;;;11.00;88.80;;;;;;4989206;28;112817;-47
2024/03/10 11:31:26;;;;;;;9.93;6.78;;;11.10;88.90;;;;;;4988410;28;114346;-45
2024/03/10 11:33:54;;;;;;;7.28;4.93;;;11.20;88.60;;;;;;4990887;28;113156;-44
2024/03/10 11:36:23;;;;;;;6.88;5.03;;;11.20;88.40;;;;;;5004762;28;112915;-48
2024/03/10 11:38:52;;;;;;;8.90;5.00;;;11.30;88.20;;;;;;4989477;28;112779;-46
2024/03/10 11:41:19;;;;;;;7.85;5.78;;;11.20;88.30;;;;;;4988452;28;113205;-46
2024/03/10 11:43:47;;;;;;;10.18;6.32;;;11.20;88.70;;;;;;4989162;28;112839;-45
2024/03/10 11:46:29;;;;;;;9.23;5.80;;;11.20;88.60;;;;;;4988897;28;113988;-44
2024/03/10 11:48:55;;;;;;;9.02;5.53;;;11.20;88.90;;;;;;4989101;28;112860;-46
2024/03/10 11:51:22;;;;;;;9.43;6.15;;;11.30;88.90;;;;;;4988091;28;114448;-46
2024/03/10 11:53:47;;;;;;;12.10;6.13;;;11.30;88.80;;;;;;4988421;28;113152;-46
2024/03/10 11:56:16;;;;;;;9.57;5.95;;;11.40;88.80;;;;;;4989152;28;113091;-45
2024/03/10 11:58:46;;;;;;;10.57;6.47;;;11.40;88.80;;;;;;4994130;28;112799;-47
2024/03/10 12:01:15;;;;;;;10.38;6.50;;;11.40;89.00;;;;;;4990389;28;115007;-44
2024/03/10 12:03:41;;;;;;;11.20;6.53;;;11.40;89.20;;;;;;4988265;28;112895;-51
2024/03/10 12:06:09;;;;;;;11.52;6.22;;;11.40;89.10;;;;;;4989047;28;113146;-45
2024/03/10 12:08:39;;;;;;;10.60;6.05;;;11.40;89.20;;;;;;4989617;28;113270;-43
2024/03/10 12:11:05;;;;;;;15.15;6.63;;;11.50;89.20;;;;;;4986519;28;114724;-45
2024/03/10 12:13:32;;;;;;;11.48;7.30;;;11.60;89.20;;;;;;4987880;28;112741;-44
2024/03/10 12:16:01;;;;;;;13.77;6.55;;;11.50;89.40;;;;;;4988632;28;112740;-45
2024/03/10 12:18:29;;;;;;;14.55;6.35;;;11.60;89.50;;;;;;4988973;28;112939;-45
2024/03/10 12:20:59;;;;;;;17.48;7.10;;;11.60;89.30;;;;;;4987653;28;114412;-42
2024/03/10 12:23:31;;;;;;;14.10;7.68;;;11.60;89.20;;;;;;4988242;28;113178;-47
2024/03/10 12:25:57;;;;;;;15.13;6.60;;;11.60;89.40;;;;;;4990428;28;113751;-48
2024/03/10 12:28:25;;;;;;;13.77;6.75;;;11.60;89.60;;;;;;4988483;28;112796;-41
2024/03/10 12:30:57;;;;;;;15.60;6.70;;;11.60;89.60;;;;;;4995438;28;113326;-42
2024/03/10 12:33:23;;;;;;;21.42;7.78;;;11.80;89.50;;;;;;4987942;28;112725;-53
2024/03/10 12:35:49;;;;;;;16.10;5.93;;;11.80;89.40;;;;;;5007031;28;112446;-48
2024/03/10 12:38:15;;;;;;;17.80;6.53;;;11.90;89.40;;;;;;5005904;28;112735;-43
2024/03/10 12:46:55;;;;;;;26.38;7.28;;;12.10;89.40;;;;;;5050839;27;112681;-42
2024/03/10 12:49:21;;;;;;;27.33;7.65;;;12.20;89.00;;;;;;5024943;28;112820;-43
2024/03/10 12:51:46;;;;;;;25.92;7.68;;;12.30;89.20;;;;;;5025296;28;112855;-46
2024/03/10 12:54:12;;;;;;;35.88;8.00;;;12.20;89.60;;;;;;5023145;28;114728;-42
2024/03/10 12:56:38;;;;;;;34.83;8.23;;;12.40;89.70;;;;;;5023597;28;113598;-51
2024/03/10 12:59:03;;;;;;;40.35;9.15;;;12.50;89.80;;;;;;5025084;28;112858;-44
2024/03/10 13:01:34;;;;;;;37.05;8.27;;;12.50;89.90;;;;;;5023763;28;112918;-50